Time;durP1;ratioP1;P1;durP2;ratioP2;P2;SDS_P1;SDS_P2;PMS_P1;PMS_P2;Temp;Humidity;BMP_temperature;BMP_pressure;BME280_temperature;BME280_humidity;BME280_pressure;Samples;Min_cycle;Max_cycle;Signal;HPM_P1;HPM_P2
2023/10/09 00:01:51;;;;;;;7.07;3.70;;;12.30;99.90;;;;;;4976734;28;20443;-38
2023/10/09 00:04:17;;;;;;;6.20;4.13;;;12.40;99.90;;;;;;4976260;28;20571;-37
2023/10/09 00:06:43;;;;;;;9.05;4.15;;;12.30;99.90;;;;;;4975194;28;20070;-40
2023/10/09 00:09:16;;;;;;;7.15;3.83;;;12.40;99.90;;;;;;4976999;28;20133;-39
2023/10/09 00:11:44;;;;;;;7.68;4.15;;;12.30;99.90;;;;;;4976875;28;20161;-40
2023/10/09 00:14:10;;;;;;;8.88;3.60;;;12.30;99.90;;;;;;4977024;28;20046;-37
2023/10/09 00:16:42;;;;;;;10.73;4.05;;;12.40;99.90;;;;;;4977010;28;20054;-39
2023/10/09 00:19:16;;;;;;;8.60;3.78;;;12.30;99.90;;;;;;4976417;28;20034;-35
2023/10/09 00:21:44;;;;;;;11.50;4.00;;;12.20;99.90;;;;;;4977242;28;20053;-39
2023/10/09 00:24:24;;;;;;;9.35;3.55;;;12.20;99.90;;;;;;4974506;28;20058;-40
2023/10/09 00:27:11;;;;;;;7.57;3.67;;;12.10;99.90;;;;;;4967992;28;20076;-37
2023/10/09 00:29:44;;;;;;;7.47;3.22;;;11.70;99.90;;;;;;4975058;28;20074;-39
2023/10/09 00:32:13;;;;;;;7.15;3.85;;;11.70;99.90;;;;;;4974370;28;20058;-33
2023/10/09 00:34:43;;;;;;;6.53;3.30;;;11.60;99.90;;;;;;4973482;28;20030;-35
2023/10/09 00:37:16;;;;;;;8.05;3.72;;;11.50;99.90;;;;;;4977050;28;20026;-34
2023/10/09 00:39:58;;;;;;;10.15;3.50;;;11.40;99.90;;;;;;4974948;28;20031;-34
2023/10/09 00:42:33;;;;;;;6.93;3.40;;;11.30;99.90;;;;;;4978400;28;20031;-33
2023/10/09 00:45:04;;;;;;;9.65;3.80;;;11.30;99.90;;;;;;4973572;28;20093;-32
2023/10/09 00:47:35;;;;;;;6.28;3.45;;;11.30;99.90;;;;;;4977723;28;21903;-32
2023/10/09 00:50:35;;;;;;;7.97;3.13;;;11.30;99.90;;;;;;4960779;28;20546;-35
2023/10/09 00:53:04;;;;;;;5.20;3.47;;;11.20;99.90;;;;;;4976753;28;20035;-36
2023/10/09 00:55:44;;;;;;;6.03;2.90;;;11.20;99.90;;;;;;4978679;28;20058;-32
2023/10/09 00:58:23;;;;;;;5.32;2.83;;;11.10;99.90;;;;;;4996321;28;20033;-33
2023/10/09 01:00:52;;;;;;;15.77;3.35;;;11.00;99.90;;;;;;4974522;28;20026;-34
2023/10/09 01:03:22;;;;;;;9.55;2.65;;;10.90;99.90;;;;;;4980353;28;20049;-33
2023/10/09 01:11:18;;;;;;;2.80;2.35;;;10.50;99.90;;;;;;4865557;28;20130;-33
2023/10/09 01:16:17;;;;;;;5.72;3.30;;;10.40;99.90;;;;;;4981307;28;20026;-35
2023/10/09 01:18:51;;;;;;;8.02;3.30;;;10.50;99.90;;;;;;4981670;28;20023;-35
2023/10/09 01:21:26;;;;;;;3.60;2.45;;;10.50;99.90;;;;;;4978395;28;20524;-36
2023/10/09 01:26:39;;;;;;;3.65;2.58;;;10.50;99.90;;;;;;4984024;28;20172;-33
2023/10/09 01:29:14;;;;;;;7.47;2.80;;;10.40;99.90;;;;;;4983667;28;20041;-34
2023/10/09 01:31:46;;;;;;;5.32;3.03;;;10.40;99.90;;;;;;4957815;28;20030;-40
2023/10/09 01:34:12;;;;;;;7.00;2.92;;;10.40;99.90;;;;;;4983378;28;20022;-30
2023/10/09 01:36:39;;;;;;;4.47;2.72;;;10.50;99.90;;;;;;4988627;28;20030;-31
2023/10/09 01:39:25;;;;;;;6.32;3.45;;;10.60;99.90;;;;;;4986231;28;20391;-31
2023/10/09 01:42:05;;;;;;;4.22;2.97;;;10.60;99.90;;;;;;4979663;28;20113;-40
2023/10/09 01:44:34;;;;;;;5.72;3.63;;;10.70;99.90;;;;;;4982246;28;20046;-36
2023/10/09 01:47:07;;;;;;;10.75;3.90;;;10.60;99.90;;;;;;4983278;28;20034;-41
2023/10/09 01:49:36;;;;;;;6.70;3.50;;;10.70;99.90;;;;;;4980123;28;20378;-39
2023/10/09 01:52:15;;;;;;;5.55;3.50;;;10.70;99.90;;;;;;4982067;28;20400;-37
2023/10/09 01:54:42;;;;;;;9.15;3.85;;;10.70;99.90;;;;;;4982311;28;20092;-37
2023/10/09 01:57:13;;;;;;;8.80;3.80;;;10.70;99.90;;;;;;4983405;28;20146;-36
2023/10/09 01:59:49;;;;;;;9.75;4.25;;;10.70;99.90;;;;;;4980514;28;20428;-41
2023/10/09 02:02:33;;;;;;;9.10;3.95;;;10.60;99.90;;;;;;4981273;28;20118;-41
2023/10/09 02:05:22;;;;;;;11.20;3.50;;;10.50;99.90;;;;;;4985953;28;20634;-39
2023/10/09 02:07:51;;;;;;;6.68;3.40;;;10.50;99.90;;;;;;4981289;28;20073;-41
2023/10/09 02:12:59;;;;;;;;;;;10.40;99.90;;;;;;4984305;28;19913;-41
2023/10/09 02:16:41;;;;;;;5.28;3.20;;;10.50;99.90;;;;;;4993191;28;20295;-33
2023/10/09 02:18:27;;;;;;;10.30;3.28;;;10.50;99.90;;;;;;4965233;28;20042;-34
2023/10/09 02:23:41;;;;;;;8.23;3.60;;;10.60;99.90;;;;;;4981712;28;20506;-37
2023/10/09 02:26:08;;;;;;;7.63;3.40;;;10.60;99.90;;;;;;4984025;28;20283;-39
2023/10/09 02:28:37;;;;;;;6.00;3.40;;;10.70;99.90;;;;;;4983430;28;20034;-37
2023/10/09 02:31:13;;;;;;;7.50;3.33;;;10.60;99.90;;;;;;4982998;28;20222;-39
2023/10/09 02:33:41;;;;;;;5.63;3.28;;;10.60;99.90;;;;;;4980513;28;20432;-41
2023/10/09 02:36:07;;;;;;;5.80;2.70;;;10.60;99.90;;;;;;4983230;28;20511;-38
2023/10/09 02:38:35;;;;;;;6.55;3.05;;;10.50;99.90;;;;;;4983268;28;20034;-38
2023/10/09 02:43:46;;;;;;;7.57;3.00;;;10.60;99.90;;;;;;4978056;28;20512;-41
2023/10/09 02:46:21;;;;;;;5.30;3.17;;;10.70;99.90;;;;;;4979917;28;21608;-39
2023/10/09 02:48:52;;;;;;;6.82;4.00;;;10.80;99.90;;;;;;4980649;28;20023;-37
2023/10/09 02:53:59;;;;;;;10.98;3.58;;;11.00;99.90;;;;;;4980170;28;20639;-41
2023/10/09 02:56:42;;;;;;;10.52;3.63;;;11.00;99.90;;;;;;4976645;28;20034;-36
2023/10/09 02:59:08;;;;;;;10.13;3.55;;;11.10;99.90;;;;;;4977602;28;20042;-39
2023/10/09 03:01:38;;;;;;;9.63;4.95;;;11.10;99.90;;;;;;4973925;28;20042;-37
2023/10/09 03:04:05;;;;;;;10.27;4.18;;;11.00;99.90;;;;;;4977929;28;20056;-39
2023/10/09 03:06:38;;;;;;;7.13;3.47;;;11.00;99.90;;;;;;4976271;28;20109;-40
2023/10/09 03:09:16;;;;;;;12.00;3.60;;;11.00;99.90;;;;;;4975934;28;20042;-37
2023/10/09 03:11:44;;;;;;;12.32;4.25;;;11.00;99.90;;;;;;4977367;28;20046;-35
2023/10/09 03:14:10;;;;;;;8.30;3.75;;;11.00;99.90;;;;;;4978446;28;20397;-39
2023/10/09 03:16:36;;;;;;;4.53;2.60;;;11.00;99.90;;;;;;4977909;28;20026;-39
2023/10/09 03:19:03;;;;;;;5.22;2.72;;;10.80;99.90;;;;;;4975993;28;20477;-38
2023/10/09 03:21:28;;;;;;;5.57;2.92;;;10.80;99.90;;;;;;4975670;28;20038;-36
2023/10/09 03:23:55;;;;;;;7.68;3.88;;;10.70;99.90;;;;;;4978017;28;20618;-39
2023/10/09 03:26:25;;;;;;;7.70;3.13;;;10.60;99.90;;;;;;4976000;28;20558;-37
2023/10/09 03:28:52;;;;;;;7.60;3.45;;;10.70;99.90;;;;;;4977907;28;20026;-39
2023/10/09 03:31:18;;;;;;;6.00;3.40;;;10.60;99.90;;;;;;4976362;28;20042;-40
2023/10/09 03:33:44;;;;;;;8.23;3.20;;;10.60;99.90;;;;;;4976038;28;20053;-37
2023/10/09 03:36:09;;;;;;;6.90;3.22;;;10.60;99.90;;;;;;4978267;28;20388;-41
2023/10/09 03:38:36;;;;;;;10.13;3.35;;;10.60;99.90;;;;;;4977899;28;20404;-40
2023/10/09 03:41:06;;;;;;;12.55;3.65;;;10.70;99.90;;;;;;4972938;28;20030;-37
2023/10/09 03:43:40;;;;;;;9.82;3.95;;;10.80;99.90;;;;;;4978828;28;20034;-33
2023/10/09 03:46:20;;;;;;;7.63;3.75;;;11.00;99.90;;;;;;4975750;28;20038;-39
2023/10/09 03:48:51;;;;;;;10.40;3.75;;;11.00;99.90;;;;;;4971769;28;21700;-40
2023/10/09 03:51:26;;;;;;;11.63;3.83;;;11.10;99.90;;;;;;4975564;28;20905;-30
2023/10/09 03:53:55;;;;;;;11.02;4.10;;;11.20;99.90;;;;;;4977101;28;20022;-30
2023/10/09 03:56:21;;;;;;;14.23;3.90;;;11.20;99.90;;;;;;4980869;28;20026;-30
2023/10/09 03:58:54;;;;;;;8.98;3.20;;;11.20;99.90;;;;;;4976229;28;20051;-30
2023/10/09 04:01:37;;;;;;;10.45;3.63;;;11.20;99.90;;;;;;4973544;28;20030;-39
2023/10/09 04:04:06;;;;;;;10.05;3.53;;;11.20;99.90;;;;;;4975915;28;20432;-39
2023/10/09 04:06:32;;;;;;;8.48;3.65;;;11.10;99.90;;;;;;4976814;28;20614;-39
2023/10/09 04:11:44;;;;;;;12.70;3.47;;;11.20;99.90;;;;;;4975992;28;20042;-39
2023/10/09 04:14:19;;;;;;;11.20;3.97;;;11.20;99.90;;;;;;4980526;28;20085;-40
2023/10/09 04:17:33;;;;;;;10.45;3.35;;;11.30;99.90;;;;;;4974270;28;20027;-37
2023/10/09 04:19:48;;;;;;;11.32;3.45;;;11.40;99.90;;;;;;4968343;28;20039;-37
2023/10/09 04:22:27;;;;;;;8.77;2.95;;;11.40;99.90;;;;;;4979927;28;20030;-39
2023/10/09 04:24:53;;;;;;;12.77;3.60;;;11.40;99.90;;;;;;4977357;28;20045;-36
2023/10/09 04:27:26;;;;;;;8.38;3.80;;;11.50;99.90;;;;;;4979566;28;20034;-39
2023/10/09 04:29:54;;;;;;;12.50;4.60;;;11.50;99.90;;;;;;4979217;28;20031;-36
2023/10/09 04:32:24;;;;;;;8.27;3.30;;;11.50;99.90;;;;;;4975764;28;20435;-40
2023/10/09 04:35:19;;;;;;;9.48;4.38;;;11.60;99.90;;;;;;4976941;28;20031;-39
2023/10/09 04:37:36;;;;;;;13.07;3.70;;;11.60;99.90;;;;;;4979847;28;20109;-38
2023/10/09 04:40:14;;;;;;;10.75;3.15;;;11.60;99.90;;;;;;4977636;28;20274;-38
2023/10/09 04:42:46;;;;;;;12.55;4.03;;;11.60;99.90;;;;;;4976470;28;20030;-36
2023/10/09 04:47:49;;;;;;;9.82;3.17;;;11.60;99.90;;;;;;4981927;28;20062;-38
2023/10/09 04:50:36;;;;;;;10.68;3.88;;;11.60;99.90;;;;;;4980577;28;20035;-40
2023/10/09 04:55:53;;;;;;;11.35;3.28;;;11.60;99.90;;;;;;4983805;28;20034;-37
2023/10/09 04:58:25;;;;;;;9.60;3.83;;;11.60;99.90;;;;;;4981113;28;20026;-38
2023/10/09 05:04:05;;;;;;;6.30;3.03;;;11.60;99.90;;;;;;4982658;28;20110;-40
2023/10/09 05:06:32;;;;;;;11.98;3.00;;;11.30;99.90;;;;;;4972623;28;20053;-37
2023/10/09 05:09:07;;;;;;;8.25;3.20;;;11.30;99.90;;;;;;4980390;28;20040;-38
2023/10/09 05:11:34;;;;;;;5.38;2.70;;;11.30;99.90;;;;;;4984258;28;20039;-38
2023/10/09 05:14:13;;;;;;;7.53;2.90;;;11.30;99.90;;;;;;4984463;28;20045;-39
2023/10/09 05:16:54;;;;;;;6.13;3.65;;;11.30;99.90;;;;;;4972893;28;20034;-39
2023/10/09 05:19:41;;;;;;;11.95;2.88;;;11.40;99.90;;;;;;4976353;28;20444;-36
2023/10/09 05:22:29;;;;;;;8.20;3.95;;;11.40;99.90;;;;;;4977468;28;20489;-37
2023/10/09 05:25:01;;;;;;;8.98;3.70;;;11.50;99.90;;;;;;4978049;28;20065;-36
2023/10/09 05:27:45;;;;;;;9.38;3.38;;;11.50;99.90;;;;;;4982630;28;20395;-39
2023/10/09 05:30:24;;;;;;;8.27;3.25;;;11.50;99.90;;;;;;4980645;28;20061;-40
2023/10/09 05:32:55;;;;;;;8.88;3.05;;;11.60;99.90;;;;;;4979427;28;20502;-40
2023/10/09 05:35:29;;;;;;;9.98;3.50;;;11.50;99.90;;;;;;4981402;28;20483;-40
2023/10/09 05:38:02;;;;;;;6.72;3.22;;;11.50;99.90;;;;;;4985079;28;20620;-39
2023/10/09 05:40:31;;;;;;;12.90;3.38;;;11.50;99.90;;;;;;4981177;28;20037;-37
2023/10/09 05:43:02;;;;;;;13.80;4.22;;;11.50;99.90;;;;;;4985065;28;20041;-39
2023/10/09 05:50:39;;;;;;;11.15;3.95;;;11.50;99.90;;;;;;4983947;28;20488;-37
2023/10/09 05:53:07;;;;;;;8.73;3.42;;;11.40;99.90;;;;;;4983758;28;20046;-39
2023/10/09 06:05:40;;;;;;;15.30;3.78;;;11.60;99.90;;;;;;4977727;28;20049;-39
2023/10/09 06:07:00;;;;;;;10.00;3.20;;;11.90;99.90;;;;;;4974049;28;20038;-38
2023/10/09 06:09:49;;;;;;;;;;;12.10;99.90;;;;;;4980348;28;20104;-39
2023/10/09 06:12:33;;;;;;;;;;;12.20;99.90;;;;;;4986219;28;19922;-38
2023/10/09 06:15:18;;;;;;;11.70;3.40;;;12.30;99.90;;;;;;4987493;28;20004;-41
2023/10/09 06:17:50;;;;;;;14.35;3.40;;;12.40;99.90;;;;;;4986498;28;20101;-40
2023/10/09 06:23:15;;;;;;;13.10;4.13;;;12.50;99.90;;;;;;4985552;28;20664;-31
2023/10/09 06:26:02;;;;;;;12.52;3.03;;;12.60;99.90;;;;;;4981832;28;20366;-35
2023/10/09 06:28:34;;;;;;;10.27;2.97;;;12.60;99.90;;;;;;4985048;28;20496;-32
2023/10/09 06:31:27;;;;;;;10.68;3.53;;;12.70;99.90;;;;;;4977685;28;20039;-32
2023/10/09 06:34:08;;;;;;;9.95;3.55;;;12.80;99.90;;;;;;4982429;28;20050;-33
2023/10/09 06:36:31;;;;;;;14.18;3.83;;;12.90;99.90;;;;;;4981979;28;20141;-29
2023/10/09 06:41:45;;;;;;;7.45;3.03;;;13.10;99.90;;;;;;4984612;28;20025;-32
2023/10/09 06:44:51;;;;;;;11.98;3.28;;;13.10;99.90;;;;;;4984363;28;20530;-30
2023/10/09 06:47:08;;;;;;;14.05;3.55;;;13.20;99.90;;;;;;4982678;28;20235;-29
2023/10/09 06:49:36;;;;;;;12.27;3.10;;;13.30;99.90;;;;;;4987705;28;20072;-32
2023/10/09 06:52:15;;;;;;;9.63;3.65;;;13.40;99.90;;;;;;4983722;28;20125;-33
2023/10/09 06:54:49;;;;;;;15.35;4.15;;;13.40;99.90;;;;;;4980827;28;20034;-34
2023/10/09 06:57:43;;;;;;;9.85;2.92;;;13.50;99.90;;;;;;4981691;28;20029;-31
2023/10/09 07:00:51;;;;;;;15.93;4.10;;;13.50;99.90;;;;;;4980713;28;20553;-30
2023/10/09 07:02:57;;;;;;;9.10;3.40;;;13.60;99.90;;;;;;4983339;28;20102;-29
2023/10/09 07:05:31;;;;;;;13.38;3.58;;;13.70;99.90;;;;;;4981995;28;20399;-32
2023/10/09 07:08:28;;;;;;;11.75;3.45;;;13.80;99.90;;;;;;4984935;28;20113;-30
2023/10/09 07:10:43;;;;;;;12.10;3.47;;;13.80;99.90;;;;;;4980701;28;20038;-31
2023/10/09 07:13:11;;;;;;;12.10;3.28;;;14.00;99.90;;;;;;4982223;28;20558;-31
2023/10/09 07:16:28;;;;;;;13.88;3.88;;;14.10;99.90;;;;;;4981706;28;20042;-30
2023/10/09 07:18:49;;;;;;;14.82;3.00;;;14.20;99.90;;;;;;4975666;28;20034;-29
2023/10/09 07:21:18;;;;;;;13.82;3.88;;;14.50;99.90;;;;;;4973496;28;20027;-32
2023/10/09 07:23:56;;;;;;;10.48;2.80;;;14.60;99.90;;;;;;4981465;28;20034;-31
2023/10/09 07:26:36;;;;;;;17.25;3.50;;;14.90;99.90;;;;;;4982137;28;20109;-34
2023/10/09 07:29:27;;;;;;;8.50;3.30;;;15.10;99.90;;;;;;4974947;28;20034;-30
2023/10/09 07:31:57;;;;;;;11.07;3.37;;;15.20;99.90;;;;;;4974275;28;20030;-40
2023/10/09 07:34:52;;;;;;;9.05;3.35;;;15.30;99.90;;;;;;4983961;28;20714;-35
2023/10/09 07:37:09;;;;;;;7.82;2.75;;;15.40;99.90;;;;;;4976094;28;20034;-41
2023/10/09 07:39:35;;;;;;;13.57;3.42;;;15.40;99.90;;;;;;4982625;28;20030;-35
2023/10/09 07:42:26;;;;;;;7.63;2.97;;;15.50;99.90;;;;;;4978102;28;20041;-41
2023/10/09 07:44:56;;;;;;;10.50;3.60;;;15.60;99.90;;;;;;4967851;28;20046;-40
2023/10/09 07:50:11;;;;;;;7.22;2.78;;;15.70;99.90;;;;;;4972419;28;20177;-35
2023/10/09 07:52:43;;;;;;;10.43;2.97;;;15.80;99.90;;;;;;4972199;28;20112;-40
2023/10/09 07:55:25;;;;;;;8.40;2.85;;;16.00;99.90;;;;;;4972619;28;20041;-39
2023/10/09 07:57:52;;;;;;;11.80;3.17;;;16.10;99.90;;;;;;4978317;28;20037;-40
2023/10/09 08:00:36;;;;;;;11.85;2.97;;;16.20;99.90;;;;;;4978237;28;20034;-38
2023/10/09 08:03:02;;;;;;;8.75;2.83;;;16.20;99.90;;;;;;4975433;28;20045;-37
2023/10/09 08:05:33;;;;;;;9.32;3.58;;;16.30;99.90;;;;;;4976272;28;20042;-34
2023/10/09 08:08:39;;;;;;;9.20;3.55;;;16.30;99.90;;;;;;4969228;28;20026;-37
2023/10/09 08:14:02;;;;;;;9.48;2.78;;;16.40;99.90;;;;;;4918625;29;20039;-38
2023/10/09 08:16:36;;;;;;;12.82;2.58;;;16.40;99.90;;;;;;4968659;28;20039;-36
2023/10/09 08:19:32;;;;;;;8.25;2.83;;;16.40;99.90;;;;;;4982189;28;20081;-40
2023/10/09 08:22:17;;;;;;;7.10;2.85;;;16.50;99.90;;;;;;4977305;28;20027;-41
2023/10/09 08:24:49;;;;;;;14.65;3.47;;;16.50;99.90;;;;;;4970724;28;20034;-36
2023/10/09 08:33:00;;;;;;;8.23;3.13;;;16.60;99.90;;;;;;4975509;28;20038;-38
2023/10/09 08:35:29;;;;;;;9.35;3.20;;;16.60;99.90;;;;;;4972913;28;20443;-39
2023/10/09 08:38:03;;;;;;;11.40;3.35;;;16.70;99.90;;;;;;4983676;28;20103;-40
2023/10/09 08:40:33;;;;;;;8.57;2.65;;;16.80;99.90;;;;;;4975906;28;20034;-37
2023/10/09 08:43:11;;;;;;;10.90;4.10;;;16.80;99.90;;;;;;4978010;28;20026;-34
2023/10/09 08:45:41;;;;;;;6.40;2.35;;;16.90;99.90;;;;;;4971342;28;20067;-33
2023/10/09 08:48:08;;;;;;;11.32;2.90;;;17.00;99.90;;;;;;4970438;28;20031;-40
2023/10/09 08:50:36;;;;;;;9.75;3.72;;;17.00;99.90;;;;;;4986620;28;20029;-38
2023/10/09 08:53:03;;;;;;;8.77;3.23;;;17.10;99.90;;;;;;4982659;28;20057;-38
2023/10/09 08:55:29;;;;;;;10.32;3.50;;;17.20;99.90;;;;;;4982487;28;20066;-39
2023/10/09 08:57:57;;;;;;;12.13;2.80;;;17.20;99.90;;;;;;4986164;28;20026;-39
2023/10/09 09:00:33;;;;;;;10.55;2.47;;;17.30;99.90;;;;;;4979772;28;20041;-35
2023/10/09 09:03:00;;;;;;;7.68;2.90;;;17.40;99.90;;;;;;4981743;28;20035;-40
2023/10/09 09:05:28;;;;;;;10.33;2.93;;;17.40;99.90;;;;;;4978796;28;20169;-37
2023/10/09 09:07:56;;;;;;;;;;;17.50;99.90;;;;;;4978425;28;20058;-40
2023/10/09 09:10:47;;;;;;;;;;;17.50;99.90;;;;;;4984048;28;19961;-38
2023/10/09 09:13:18;;;;;;;8.75;2.40;;;17.60;99.90;;;;;;4981815;28;19964;-40
2023/10/09 09:15:47;;;;;;;8.27;2.45;;;17.70;99.90;;;;;;4983300;28;20546;-38
2023/10/09 09:18:17;;;;;;;12.05;3.10;;;17.80;99.90;;;;;;4976964;28;20022;-40
2023/10/09 09:20:46;;;;;;;12.70;3.10;;;17.80;99.90;;;;;;4975469;28;20022;-39
2023/10/09 09:23:13;;;;;;;8.68;2.67;;;17.90;99.90;;;;;;4981601;28;20081;-41
2023/10/09 09:25:44;;;;;;;10.18;2.75;;;18.00;99.90;;;;;;4973525;28;20035;-40
2023/10/09 09:28:12;;;;;;;7.18;2.33;;;18.10;99.90;;;;;;4979004;28;20039;-40
2023/10/09 09:30:40;;;;;;;;;;;18.20;99.90;;;;;;4976198;28;20027;-40
2023/10/09 09:33:26;;;;;;;13.60;2.75;;;18.30;99.90;;;;;;4974420;28;19914;-37
2023/10/09 09:36:02;;;;;;;8.65;2.95;;;18.40;99.90;;;;;;4980275;28;20034;-41
2023/10/09 09:38:28;;;;;;;9.25;2.65;;;18.40;99.90;;;;;;4976073;28;20136;-37
2023/10/09 09:40:57;;;;;;;7.90;2.67;;;18.50;99.90;;;;;;4984300;28;20026;-40
2023/10/09 09:43:25;;;;;;;10.50;2.97;;;18.50;99.90;;;;;;4980899;28;20142;-38
2023/10/09 09:45:56;;;;;;;11.20;3.63;;;18.60;99.90;;;;;;4976625;28;20030;-40
2023/10/09 09:48:23;;;;;;;9.60;2.88;;;18.60;99.90;;;;;;4981805;28;20516;-39
2023/10/09 09:50:54;;;;;;;9.27;2.30;;;18.60;99.90;;;;;;4979023;28;20420;-40
2023/10/09 09:53:23;;;;;;;9.57;2.97;;;18.70;99.90;;;;;;4976636;28;20034;-38
2023/10/09 09:55:57;;;;;;;7.05;2.50;;;18.70;99.90;;;;;;4977949;28;20050;-40
2023/10/09 09:58:24;;;;;;;7.22;2.28;;;18.80;99.90;;;;;;4976411;28;20045;-33
2023/10/09 10:00:54;;;;;;;15.10;3.90;;;18.80;99.90;;;;;;4986749;28;20064;-37
2023/10/09 10:03:29;;;;;;;11.70;2.78;;;18.80;99.90;;;;;;4978466;28;20027;-39
2023/10/09 10:05:57;;;;;;;13.73;3.15;;;18.90;99.90;;;;;;4978928;28;20105;-41
2023/10/09 10:08:32;;;;;;;16.80;2.80;;;18.90;99.90;;;;;;4975765;28;20041;-38
2023/10/09 10:11:04;;;;;;;12.05;2.80;;;19.00;99.90;;;;;;4980258;28;20084;-39
2023/10/09 10:13:42;;;;;;;10.10;2.45;;;19.10;99.90;;;;;;4978747;28;20392;-40
2023/10/09 10:18:54;;;;;;;10.50;2.67;;;19.10;99.90;;;;;;4975654;28;20641;-39
2023/10/09 10:24:05;;;;;;;8.00;2.40;;;19.20;99.90;;;;;;4979271;28;20053;-41
2023/10/09 10:26:33;;;;;;;8.82;2.88;;;19.30;99.90;;;;;;4974297;28;20039;-37
2023/10/09 10:29:23;;;;;;;8.57;2.40;;;19.40;99.90;;;;;;4984382;28;20026;-38
2023/10/09 10:32:06;;;;;;;12.77;3.00;;;19.40;99.90;;;;;;4979093;28;20069;-41
2023/10/09 10:34:55;;;;;;;14.40;3.40;;;19.50;99.90;;;;;;4979048;28;20602;-39
2023/10/09 10:37:33;;;;;;;14.15;2.88;;;19.60;99.90;;;;;;4979007;28;20451;-41
2023/10/09 10:40:01;;;;;;;10.82;2.70;;;19.60;99.90;;;;;;4980222;28;20046;-42
2023/10/09 10:42:36;;;;;;;8.95;2.33;;;19.70;99.90;;;;;;4977601;28;20419;-37
2023/10/09 10:45:02;;;;;;;11.48;2.88;;;19.80;99.90;;;;;;4979189;28;20026;-39
2023/10/09 10:47:34;;;;;;;10.85;3.30;;;19.90;99.90;;;;;;4977747;28;20475;-38
2023/10/09 10:52:50;;;;;;;10.32;3.15;;;20.00;99.90;;;;;;4982876;28;20093;-41
2023/10/09 10:58:35;;;;;;;10.95;2.75;;;20.20;99.90;;;;;;4987261;28;20026;-39
2023/10/09 11:03:29;;;;;;;6.78;2.17;;;20.30;99.90;;;;;;4985645;28;20011;-39
2023/10/09 11:05:55;;;;;;;8.20;2.10;;;20.30;99.90;;;;;;4982217;28;20032;-38
2023/10/09 11:08:30;;;;;;;11.73;2.83;;;20.40;99.90;;;;;;4983109;28;20029;-40
2023/10/09 11:11:15;;;;;;;11.32;2.75;;;20.40;99.90;;;;;;4981079;28;20101;-40
2023/10/09 11:13:56;;;;;;;11.20;2.60;;;20.30;99.90;;;;;;4983498;28;20040;-38
2023/10/09 11:16:41;;;;;;;9.80;2.28;;;20.30;99.90;;;;;;4980161;28;20073;-37
2023/10/09 11:19:31;;;;;;;12.18;2.50;;;20.20;99.90;;;;;;4981473;28;20039;-39
2023/10/09 11:24:34;;;;;;;15.07;2.72;;;20.20;99.90;;;;;;4981964;28;20042;-39
2023/10/09 11:27:05;;;;;;;12.00;3.00;;;20.30;99.90;;;;;;4983112;28;20030;-39
2023/10/09 11:32:23;;;;;;;9.82;3.15;;;20.30;99.90;;;;;;4981042;28;20031;-37
2023/10/09 11:34:53;;;;;;;8.82;2.50;;;20.20;99.90;;;;;;4982848;28;20134;-39
2023/10/09 11:38:20;;;;;;;8.07;2.42;;;20.30;99.90;;;;;;4981582;28;20041;-37
2023/10/09 11:40:34;;;;;;;9.00;2.75;;;20.30;99.90;;;;;;4977052;28;20046;-40
2023/10/09 11:43:13;;;;;;;9.90;3.13;;;20.20;99.90;;;;;;4981889;28;20034;-40
2023/10/09 11:45:39;;;;;;;10.60;2.55;;;20.20;99.90;;;;;;4982930;28;20079;-40
2023/10/09 11:49:15;;;;;;;10.82;2.78;;;20.20;99.90;;;;;;4979558;28;20045;-39
2023/10/09 11:51:21;;;;;;;10.30;2.67;;;20.30;99.90;;;;;;4977921;28;20427;-40
2023/10/09 11:53:50;;;;;;;12.77;2.53;;;20.30;99.90;;;;;;4984865;28;20031;-37
2023/10/09 11:56:19;;;;;;;11.27;3.92;;;20.30;99.90;;;;;;4987382;28;20507;-40
2023/10/09 11:58:53;;;;;;;11.43;2.80;;;20.30;99.90;;;;;;4983583;28;20061;-37
2023/10/09 12:01:22;;;;;;;9.57;2.42;;;20.30;99.90;;;;;;4982263;28;20034;-40
2023/10/09 12:03:53;;;;;;;9.93;2.90;;;20.30;99.90;;;;;;4982091;28;20030;-39
2023/10/09 12:06:24;;;;;;;8.88;3.50;;;20.30;99.90;;;;;;4978415;28;20038;-38
2023/10/09 12:08:49;;;;;;;6.63;2.83;;;20.30;99.90;;;;;;4976109;28;20093;-40
2023/10/09 12:11:22;;;;;;;13.30;2.90;;;20.30;99.90;;;;;;4978809;28;20055;-40
2023/10/09 12:13:56;;;;;;;10.30;2.65;;;20.30;99.90;;;;;;4984832;28;20027;-40
2023/10/09 12:16:27;;;;;;;8.88;2.65;;;20.20;99.90;;;;;;4978530;28;20054;-39
2023/10/09 12:18:56;;;;;;;14.63;3.55;;;20.10;99.90;;;;;;4984603;28;20417;-40
2023/10/09 12:21:23;;;;;;;8.63;2.55;;;20.00;99.90;;;;;;4981253;28;20117;-40
2023/10/09 12:23:49;;;;;;;9.25;2.85;;;19.90;99.90;;;;;;4989106;28;20026;-39
2023/10/09 12:26:14;;;;;;;9.85;2.65;;;19.90;99.90;;;;;;4985407;28;20027;-38
2023/10/09 12:28:45;;;;;;;6.13;2.22;;;19.90;99.90;;;;;;4985534;28;20031;-37
2023/10/09 12:31:24;;;;;;;7.90;2.85;;;19.90;99.90;;;;;;4982309;28;20381;-39
2023/10/09 12:33:51;;;;;;;8.85;3.00;;;19.90;99.90;;;;;;4985687;28;20444;-40
2023/10/09 12:36:19;;;;;;;10.07;2.90;;;19.90;99.90;;;;;;4978815;28;20030;-39
2023/10/09 12:38:50;;;;;;;12.73;3.03;;;19.90;99.90;;;;;;4982746;28;20030;-37
2023/10/09 12:41:26;;;;;;;7.65;2.35;;;19.90;99.90;;;;;;4981950;28;20056;-40
2023/10/09 12:43:55;;;;;;;12.10;3.15;;;20.00;99.90;;;;;;4979631;28;20050;-40
2023/10/09 12:46:25;;;;;;;10.00;2.75;;;20.00;99.90;;;;;;4979062;28;20404;-38
2023/10/09 12:48:54;;;;;;;9.63;2.72;;;20.00;99.90;;;;;;4980594;28;20014;-38
2023/10/09 12:51:20;;;;;;;10.30;3.20;;;20.00;99.90;;;;;;4983848;28;20415;-39
2023/10/09 12:53:56;;;;;;;8.35;2.40;;;20.10;99.90;;;;;;4978904;28;20102;-40
2023/10/09 12:56:32;;;;;;;8.27;2.90;;;20.10;99.90;;;;;;4979512;28;20022;-40
2023/10/09 12:59:01;;;;;;;11.68;2.70;;;20.20;99.90;;;;;;4983624;28;20616;-39
2023/10/09 13:01:32;;;;;;;12.10;2.60;;;20.10;99.90;;;;;;4983499;28;20030;-39
2023/10/09 13:04:00;;;;;;;11.40;2.85;;;20.10;99.90;;;;;;4985839;28;20026;-39
2023/10/09 13:06:27;;;;;;;12.20;2.90;;;20.20;99.90;;;;;;4987404;28;20424;-33
2023/10/09 13:08:56;;;;;;;6.32;2.55;;;20.20;99.90;;;;;;4985290;28;20034;-39
2023/10/09 13:11:21;;;;;;;8.27;2.58;;;20.10;99.90;;;;;;4988269;28;20043;-40
2023/10/09 13:13:50;;;;;;;9.10;2.90;;;20.10;99.90;;;;;;4980737;28;20022;-39
2023/10/09 13:16:23;;;;;;;14.02;3.05;;;19.90;99.90;;;;;;4989043;28;20391;-39
2023/10/09 13:18:56;;;;;;;10.68;2.60;;;19.80;99.90;;;;;;4982950;28;20069;-40
2023/10/09 13:21:26;;;;;;;9.40;2.92;;;19.60;99.90;;;;;;4983958;28;20391;-39
2023/10/09 13:23:57;;;;;;;15.18;3.40;;;19.50;99.90;;;;;;4981394;28;20105;-40
2023/10/09 13:26:34;;;;;;;11.07;2.78;;;19.40;99.90;;;;;;4984467;28;20042;-37
2023/10/09 13:29:02;;;;;;;9.90;3.05;;;19.30;99.90;;;;;;4984840;28;20030;-40
2023/10/09 13:31:31;;;;;;;10.98;2.85;;;19.30;99.90;;;;;;4982471;28;20038;-40
2023/10/09 13:33:59;;;;;;;12.68;3.97;;;19.30;99.90;;;;;;4985386;28;20033;-40
2023/10/09 13:36:32;;;;;;;13.07;3.73;;;19.30;99.90;;;;;;4984572;28;20033;-35
2023/10/09 13:38:57;;;;;;;9.45;2.45;;;19.40;99.90;;;;;;4988151;28;20069;-40
2023/10/09 13:41:28;;;;;;;10.43;3.17;;;19.40;99.90;;;;;;4988566;28;20042;-39
2023/10/09 13:43:56;;;;;;;9.38;3.00;;;19.40;99.90;;;;;;4987068;28;20023;-40
2023/10/09 13:46:23;;;;;;;9.38;3.35;;;19.40;99.90;;;;;;4987266;28;20031;-40
2023/10/09 13:48:49;;;;;;;9.90;3.30;;;19.40;99.90;;;;;;4985450;28;20057;-40
2023/10/09 13:51:18;;;;;;;12.25;3.70;;;19.50;99.90;;;;;;4982378;28;20019;-40
2023/10/09 13:53:50;;;;;;;12.32;3.80;;;19.50;99.90;;;;;;4984253;28;20130;-40
2023/10/09 13:56:20;;;;;;;13.50;3.50;;;19.50;99.90;;;;;;4979080;28;20121;-40
2023/10/09 13:58:50;;;;;;;11.27;4.35;;;19.50;99.90;;;;;;4978603;28;20645;-40
2023/10/09 14:01:26;;;;;;;13.02;3.22;;;19.50;99.90;;;;;;4981242;28;20027;-39
2023/10/09 14:03:56;;;;;;;15.20;3.25;;;19.40;99.90;;;;;;5002382;28;20500;-39
2023/10/09 14:06:33;;;;;;;10.95;3.30;;;19.40;99.90;;;;;;4983671;28;20134;-38
2023/10/09 14:09:02;;;;;;;9.15;3.00;;;19.50;99.90;;;;;;4977358;28;20496;-39
2023/10/09 14:11:27;;;;;;;11.50;3.28;;;19.50;99.90;;;;;;4975568;28;20051;-39
2023/10/09 14:13:53;;;;;;;11.48;3.25;;;19.60;99.90;;;;;;4984215;28;20027;-37
2023/10/09 14:16:27;;;;;;;14.57;3.35;;;19.70;99.90;;;;;;4962847;28;20062;-38
2023/10/09 14:18:56;;;;;;;10.95;3.22;;;19.70;99.90;;;;;;4983902;28;20027;-36
2023/10/09 14:21:25;;;;;;;10.98;3.08;;;19.80;99.90;;;;;;4982111;28;20026;-39
2023/10/09 14:23:56;;;;;;;11.23;3.42;;;19.80;99.90;;;;;;4983796;28;20383;-39
2023/10/09 14:26:25;;;;;;;8.23;2.90;;;19.70;99.90;;;;;;4987980;28;20026;-39
2023/10/09 14:28:52;;;;;;;9.43;2.85;;;19.80;99.90;;;;;;4981704;28;20034;-40
2023/10/09 14:31:20;;;;;;;10.88;3.03;;;19.80;99.90;;;;;;4985719;28;20030;-32
2023/10/09 14:33:51;;;;;;;;;;;19.80;99.90;;;;;;4984321;28;20794;-33
2023/10/09 14:36:18;;;;;;;10.13;2.90;;;19.70;99.90;;;;;;4985052;28;20012;-36